Etusivu
METAR-TAF:

METAR-TAF

Lentoasemat :

Bryssel, Belgia

Brysselin lentoasema

Leveyspiiri: 50-54N, Pituuspiiri: 004-32E, korkeus merenpinnasta: 55 m

Tämänhetkinen sää

Tämä raportti tehtiin 31 minuuttia sitten, kello 18.20 UTC
Tuuli 5 kn luoteesta, vaihdellen lännen/luoteen ja pohjoisen välillä
Lämpötila 14°C
Kosteus 77%
Ilmanpaine 1021 hPa
Näkyvyys 10 km tai enemmän
Muutamia pilviä 4000 ft:n korkeudessa

METAR: EBBR 191820Z 32005KT 300V360 9999 FEW040 14/10 Q1021 NOSIG

Aika: 20:51 (18:51 UTC)

Sääennuste

Tämä raportti tehtiin 1 tunti ja 31 minuuttia sitten, kello 17.20 UTC
Ennuste voimassa 19. päivästä klo 18 UTC - 20. päivään klo 24 UTC
Tuuli 5 kn lännestä/luoteesta
Näkyvyys 10 km tai enemmän
Hajanaisia pilviä 3500 ft:n korkeudessa

TAF: EBBR 191720Z 1918/2024 29005KT 9999 SCT035

Säähavainnot ja -ennusteet yli 4000 lentoasemalta (METAR- ja TAF-raportit).

Käytössä olevat sääasemat on merkitty karttaan keltaisilla ja punaisilla pisteillä.

Aseta hiiri pisteen päälle nähdäksesi sääaseman nimen.

Klikkaa sitten nähdäksesi säähavainnot ja -ennusteet.

Kartan vaihtaminen: klikkaa mustalla rastilla varustettuja vihreitä pisteitä, niin voit zoomata sisään; viivalla varustettua vihreää pistettä, niin voit zoomata ulos tai vihreitä nuolia, niin pääset viereisille kartoille.


METAR-TAF: